Terminal Aerodrome Forecast
Issued by NWS Des Moines, IA

Current Version | Previous Version | Text Only | Print | Product List | Glossary On
Versions: 1 2 3 4 5 6 7 8 9 10 11 12 13 14 15 16 17 18 19 20 21 22 23 24 25 26 27 28 29 30 31 32 33
000
FTUS43 KDMX 011439 AAB
TAFALO
TAF AMD
KALO 011439Z 0115/0212 24007KT 5SM BR BKN120
     FM011600 25007KT P6SM SCT022 BKN070
     FM012000 28012KT P6SM SCT025 BKN080
     FM020200 28007KT P6SM SKC=

USA.gov is the U.S. government's official web portal to all federal, state and local government web resources and services.